Olathe, KS

2:47 AM CST on February 01, 2015 (GMT -0600)
Northgate Estates | Change Station
CLOSE
Current Station
Personal Weather Station
Location: Olathe, KS
Elevation: 970 ft
Nearby Weather Stations

Elev 970 ft 38.89 °N, 94.82 °W | Updated 2 seconds ago

Snow
Snow
33.6 °F
Feels Like 34 °F
N
0.0
Wind Variable Wind from SSE
Gusts 0.0 mph

Today
High -- | Low -- °F
--% Chance of Precip.
Yesterday
High -- | Low -- °F
Precip. -- in
7:25 AM 5:40 PM
Waxing Gibbous, 94% visible
Pressure 29.81 in
Visibility 4.0 miles
Clouds Mostly Cloudy 600 ft
Overcast 900 ft
Windchill 34 °F
Dew Point 32 °F
Humidity 96%
Rainfall 0.11 in
Snow Depth Not available.
UV 0.0 out of 12
Pollen .10 out of 12
Air Quality Not available.
Flu Activity Not available.
METAR KIXD 010753Z AUTO 17008KT 4SM -SN BR BKN006 OVC009 01/01 A2979 RMK AO2 RAE41SNB41 SLP095 P0010 T00110006

More Conditions Fewer Conditions

Pressure 29.81 in
Visibility 4.0 miles
Clouds Mostly Cloudy 600 ft
Overcast 900 ft
Windchill 34 °F
Dew Point 32 °F
Humidity 96%
Rainfall 0.11 in
Snow Depth Not available.
UV 0.0 out of 12
Pollen .10 out of 12
Air Quality Not available.
Flu Activity Not available.
METAR KIXD 010753Z AUTO 17008KT 4SM -SN BR BKN006 OVC009 01/01 A2979 RMK AO2 RAE41SNB41 SLP095 P0010 T00110006

More Conditions Fewer Conditions

10-Day Weather Forecast

Almanac

Astronomy

Feb. 01, 2015 Rise Set
Actual Time
Civil Twilight
Nautical Twilight
Astronomical Twilight
Moon
Length of Visible Light
Length of Day
Tomorrow will be .
, % of the Moon is Illuminated

Today's Extremes

State Highs State Lows

Community

WunderPhotos

Upload Photos

1,792,338 photos uploaded!

WunderBlogs® & News

Nearby

Air Quality

  Air Quality AQ Index Pollutant
Not available.

Snow Depth

Station Depth Elevation

Earthquake Activity

City Distance Mag. Time & Date
Minimum magnitude displayed is 2.5.

Coastal Water Temperatures

Place Temperature

Nearby Weather Stations